createdAt,value
2022-08-07T00:00:23.396Z,1.2
2022-08-07T00:01:43.400Z,1.2
2022-08-07T00:02:40.172Z,1.2
2022-08-07T00:03:48.771Z,1.3
2022-08-07T00:04:57.224Z,1.3
2022-08-07T00:06:05.523Z,1.3
2022-08-07T00:07:14.167Z,1.6
2022-08-07T00:08:22.539Z,1.6
2022-08-07T00:09:34.347Z,1.6
2022-08-07T00:10:47.848Z,0.6
2022-08-07T00:11:53.852Z,0.6
2022-08-07T00:12:58.160Z,0.6
2022-08-07T00:14:04.874Z,1
2022-08-07T00:15:13.275Z,1
2022-08-07T00:16:21.713Z,1
2022-08-07T00:17:30.272Z,0.7
2022-08-07T00:18:38.646Z,0.7
2022-08-07T00:20:00.778Z,0.7
2022-08-07T00:20:56.680Z,1.3
2022-08-07T00:22:03.974Z,1.3
2022-08-07T00:23:12.332Z,1.3
2022-08-07T00:24:20.965Z,0.9
2022-08-07T00:25:37.329Z,0.9
2022-08-07T00:26:49.010Z,0.9
2022-08-07T00:27:52.022Z,2.2
2022-08-07T00:28:55.572Z,2.2
2022-08-07T00:30:03.095Z,2.2
2022-08-07T00:31:12.527Z,1.1
2022-08-07T00:32:20.086Z,1.1
2022-08-07T00:33:28.448Z,1.1
2022-08-07T00:34:37.061Z,0.8
2022-08-07T00:35:49.135Z,0.8
2022-08-07T00:36:53.809Z,0.8
2022-08-07T00:38:02.389Z,1.5
2022-08-07T00:39:12.722Z,1.5
2022-08-07T00:40:36.769Z,1.5
2022-08-07T00:41:27.759Z,1.5
2022-08-07T00:42:36.464Z,1.5
2022-08-07T00:44:00.072Z,1.5
2022-08-07T00:44:53.182Z,1.3
2022-08-07T00:46:01.818Z,1.3
2022-08-07T00:47:16.210Z,1.3
2022-08-07T00:48:18.801Z,1.2
2022-08-07T00:50:17.185Z,1.2
2022-08-07T00:50:46.399Z,1.2
2022-08-07T00:51:56.828Z,1.1
2022-08-07T00:52:53.001Z,1.1
2022-08-07T00:54:00.734Z,1.1
2022-08-07T00:55:10.469Z,2.4
2022-08-07T00:56:17.667Z,2.4
2022-08-07T00:57:26.275Z,2.4
2022-08-07T00:58:34.639Z,0.8
2022-08-07T00:59:43.042Z,0.8
2022-08-07T01:00:53.851Z,0.8
2022-08-07T01:02:00.056Z,2.1
2022-08-07T01:03:08.432Z,2.1
2022-08-07T01:04:21.636Z,2.1
2022-08-07T01:05:25.371Z,0.8
2022-08-07T01:06:33.788Z,0.8
2022-08-07T01:07:42.124Z,0.8
2022-08-07T01:08:52.851Z,2
2022-08-07T01:10:05.494Z,2
2022-08-07T01:12:04.295Z,2
2022-08-07T01:12:29.427Z,1.2
2022-08-07T01:13:24.502Z,1.2
2022-08-07T01:14:32.863Z,1.2
2022-08-07T01:16:00.762Z,1.4
2022-08-07T01:16:49.803Z,1.4
2022-08-07T01:17:58.201Z,1.4
2022-08-07T01:19:11.013Z,1.6
2022-08-07T01:20:16.501Z,1.6
2022-08-07T01:21:25.789Z,1.6
2022-08-07T01:22:32.114Z,1.7
2022-08-07T01:23:42.690Z,1.7
2022-08-07T01:24:48.876Z,1.7
2022-08-07T01:25:57.512Z,1.8
2022-08-07T01:27:05.919Z,1.8
2022-08-07T01:28:14.323Z,1.8
2022-08-07T01:29:22.882Z,0.9
2022-08-07T01:30:31.279Z,0.9
2022-08-07T01:31:41.503Z,0.9
2022-08-07T01:32:48.252Z,0.8
2022-08-07T01:33:57.543Z,0.8
2022-08-07T01:35:05.010Z,0.8
2022-08-07T01:36:15.118Z,1.9
2022-08-07T01:37:22.056Z,1.9
2022-08-07T01:38:30.402Z,1.9
2022-08-07T01:39:39.804Z,2.9
2022-08-07T01:40:47.353Z,2.9
2022-08-07T01:42:07.823Z,2.9
2022-08-07T01:43:04.336Z,1.1
2022-08-07T01:44:12.718Z,1.1
2022-08-07T01:45:22.679Z,1.1
2022-08-07T01:46:31.132Z,3.6
2022-08-07T01:48:18.820Z,3.6
2022-08-07T01:48:47.496Z,3.6
2022-08-07T01:49:55.046Z,0.8
2022-08-07T01:51:08.337Z,0.8
2022-08-07T01:52:11.812Z,0.8
2022-08-07T01:53:21.166Z,0.7
2022-08-07T01:54:32.748Z,0.7
2022-08-07T01:55:37.129Z,0.7
2022-08-07T01:56:47.712Z,1.4
2022-08-07T01:58:01.073Z,1.4
2022-08-07T01:59:02.497Z,1.4
2022-08-07T02:00:12.760Z,1.4
2022-08-07T02:01:25.758Z,1.4
2022-08-07T02:02:32.387Z,1.4
2022-08-07T02:03:43.000Z,0.6
2022-08-07T02:04:52.415Z,0.6
2022-08-07T02:05:58.512Z,0.6
2022-08-07T02:07:01.819Z,1.8
2022-08-07T02:08:10.193Z,1.8
2022-08-07T02:09:33.555Z,1.8
2022-08-07T02:10:27.152Z,1.2
2022-08-07T02:12:01.447Z,1.2
2022-08-07T02:12:46.346Z,1.2
2022-08-07T02:13:56.977Z,1.1
2022-08-07T02:15:01.052Z,1.1
2022-08-07T02:16:09.264Z,1.1
2022-08-07T02:17:24.919Z,1.6
2022-08-07T02:18:26.245Z,1.6
2022-08-07T02:20:03.909Z,1.6
2022-08-07T02:20:43.174Z,1.5
2022-08-07T02:21:55.674Z,1.5
2022-08-07T02:23:00.073Z,1.5
2022-08-07T02:24:08.505Z,1.4
2022-08-07T02:25:17.230Z,1.4
2022-08-07T02:26:32.132Z,1.4
2022-08-07T02:27:34.530Z,2
2022-08-07T02:28:42.218Z,2
2022-08-07T02:29:54.047Z,2
2022-08-07T02:30:59.157Z,2.1
2022-08-07T02:32:10.830Z,2.1
2022-08-07T02:33:15.891Z,2.1
2022-08-07T02:34:24.448Z,2
2022-08-07T02:36:27.719Z,2
2022-08-07T02:36:41.435Z,2
2022-08-07T02:37:49.761Z,1.7
2022-08-07T02:38:58.232Z,1.7
2022-08-07T02:40:29.622Z,1.7
2022-08-07T02:41:21.631Z,1.4
2022-08-07T02:42:23.463Z,1.4
2022-08-07T02:43:31.853Z,1.4
2022-08-07T02:44:42.237Z,1.6
2022-08-07T02:45:57.886Z,1.6
2022-08-07T02:46:57.161Z,1.6
2022-08-07T02:48:10.144Z,1.5
2022-08-07T02:49:29.057Z,1.5
2022-08-07T02:50:22.461Z,1.5
2022-08-07T02:51:42.213Z,2.2
2022-08-07T02:52:39.461Z,2.2
2022-08-07T02:53:47.833Z,2.2
2022-08-07T02:54:56.420Z,2.3
2022-08-07T02:56:06.485Z,2.3
2022-08-07T02:57:13.486Z,2.3
2022-08-07T02:58:21.897Z,2
2022-08-07T02:59:30.111Z,2
2022-08-07T03:00:39.157Z,2
2022-08-07T03:01:52.082Z,1.5
2022-08-07T03:02:55.632Z,1.5
2022-08-07T03:04:07.276Z,1.5
2022-08-07T03:05:12.389Z,1
2022-08-07T03:06:25.781Z,1
2022-08-07T03:07:43.018Z,1
2022-08-07T03:08:37.740Z,1.4
2022-08-07T03:09:48.293Z,1.4
2022-08-07T03:10:54.464Z,1.4
2022-08-07T03:12:03.278Z,1.5
2022-08-07T03:13:11.416Z,1.5
2022-08-07T03:14:19.789Z,1.5
2022-08-07T03:15:30.422Z,2.3
2022-08-07T03:16:36.748Z,2.3
2022-08-07T03:17:53.138Z,2.3
2022-08-07T03:18:53.729Z,1.8
2022-08-07T03:20:02.086Z,1.8
2022-08-07T03:21:11.341Z,1.8
2022-08-07T03:22:19.318Z,1.8
2022-08-07T03:23:33.469Z,1.8
2022-08-07T03:24:36.537Z,1.8
2022-08-07T03:25:44.371Z,1.8
2022-08-07T03:26:58.695Z,1.8
2022-08-07T03:28:09.329Z,1.8
2022-08-07T03:29:10.390Z,1.4
2022-08-07T03:30:18.052Z,1.4
2022-08-07T03:31:26.424Z,1.4
2022-08-07T03:32:34.998Z,1.8
2022-08-07T03:33:43.368Z,1.8
2022-08-07T03:35:00.748Z,1.8
2022-08-07T03:36:00.285Z,1.5
2022-08-07T03:37:12.082Z,1.5
2022-08-07T03:38:17.037Z,1.5
2022-08-07T03:39:42.084Z,2.2
2022-08-07T03:40:36.416Z,2.2
2022-08-07T03:41:47.337Z,2.2
2022-08-07T03:42:50.928Z,1.5
2022-08-07T03:43:59.304Z,1.5
2022-08-07T03:45:07.670Z,1.5
2022-08-07T03:46:18.382Z,1.6
2022-08-07T03:47:24.667Z,1.6
2022-08-07T03:48:33.011Z,1.6
2022-08-07T03:49:41.555Z,2.4
2022-08-07T03:50:52.272Z,2.4
2022-08-07T03:52:01.369Z,2.4
2022-08-07T03:53:06.999Z,1.8
2022-08-07T03:54:34.083Z,1.8
2022-08-07T03:55:23.610Z,1.8
2022-08-07T03:56:32.987Z,2.7
2022-08-07T03:58:35.723Z,2.7
2022-08-07T03:59:05.096Z,2.7
2022-08-07T04:00:01.407Z,1.7
2022-08-07T04:01:07.470Z,1.7
2022-08-07T04:02:14.342Z,1.7
2022-08-07T04:03:22.839Z,2.3
2022-08-07T04:04:32.717Z,2.3
2022-08-07T04:05:40.707Z,2.3
2022-08-07T04:06:50.743Z,1.7
2022-08-07T04:07:56.608Z,1.7
2022-08-07T04:09:04.970Z,1.7
2022-08-07T04:10:15.494Z,2
2022-08-07T04:12:23.453Z,2
2022-08-07T04:12:30.284Z,2
2022-08-07T04:14:09.170Z,1.3
2022-08-07T04:14:47.868Z,1.3
2022-08-07T04:15:55.595Z,1.3
2022-08-07T04:17:04.183Z,1.5
2022-08-07T04:18:31.539Z,1.5
2022-08-07T04:19:20.942Z,1.5
2022-08-07T04:20:29.487Z,1.7
2022-08-07T04:21:37.886Z,1.7
2022-08-07T04:22:53.248Z,1.7
2022-08-07T04:24:03.198Z,1.2
2022-08-07T04:25:03.199Z,1.2
2022-08-07T04:26:11.647Z,1.2
2022-08-07T04:27:30.304Z,1.4
2022-08-07T04:28:28.519Z,1.4
2022-08-07T04:29:40.286Z,1.4
2022-08-07T04:30:55.722Z,1
2022-08-07T04:32:02.732Z,1
2022-08-07T04:33:02.228Z,1
2022-08-07T04:34:16.349Z,3
2022-08-07T04:35:19.139Z,3
2022-08-07T04:36:27.504Z,3
2022-08-07T04:37:40.643Z,0.9
2022-08-07T04:38:44.471Z,0.9
2022-08-07T04:39:52.935Z,0.9
2022-08-07T04:41:01.437Z,1.1
2022-08-07T04:42:09.820Z,1.1
2022-08-07T04:43:18.186Z,1.1
2022-08-07T04:44:26.756Z,1.3
2022-08-07T04:45:44.717Z,1.3
2022-08-07T04:46:59.448Z,1.3
2022-08-07T04:47:57.442Z,2.3
2022-08-07T04:49:01.545Z,2.3
2022-08-07T04:50:10.832Z,2.3
2022-08-07T04:51:17.366Z,2.1
2022-08-07T04:52:26.473Z,2.1
2022-08-07T04:53:40.364Z,2.1
2022-08-07T04:54:42.685Z,0.9
2022-08-07T04:58:07.207Z,0.9
2022-08-07T04:58:08.384Z,0.9
2022-08-07T04:58:29.467Z,2.5
2022-08-07T05:00:08.229Z,2.5
2022-08-07T05:00:30.555Z,2.5
2022-08-07T05:01:33.387Z,1.1
2022-08-07T05:02:42.843Z,1.1
2022-08-07T05:04:00.757Z,1.1
2022-08-07T05:04:58.659Z,1
2022-08-07T05:06:16.615Z,1
2022-08-07T05:07:19.495Z,1
2022-08-07T05:08:45.666Z,1.6
2022-08-07T05:09:43.279Z,1.6
2022-08-07T05:10:40.710Z,1.6
2022-08-07T05:11:56.591Z,1.5
2022-08-07T05:13:01.536Z,1.5
2022-08-07T05:14:45.173Z,1.5
2022-08-07T05:15:14.603Z,1.3
2022-08-07T05:16:22.961Z,1.3
2022-08-07T05:17:50.473Z,1.3
2022-08-07T05:18:39.936Z,2
2022-08-07T05:19:48.310Z,2
2022-08-07T05:20:56.665Z,2
2022-08-07T05:22:05.258Z,2.7
2022-08-07T05:23:15.411Z,2.7
2022-08-07T05:24:24.527Z,2.7
2022-08-07T05:25:37.466Z,1.2
2022-08-07T05:26:38.924Z,1.2
2022-08-07T05:28:03.655Z,1.2
2022-08-07T05:28:55.893Z,1.1
2022-08-07T05:30:04.249Z,1.1
2022-08-07T05:31:12.631Z,1.1
2022-08-07T05:32:21.232Z,1.5
2022-08-07T05:33:29.599Z,1.5
2022-08-07T05:34:37.963Z,1.5
2022-08-07T05:35:46.535Z,1.5
2022-08-07T05:36:54.921Z,1.5
2022-08-07T05:38:08.556Z,1.5
2022-08-07T05:40:06.185Z,2.1
2022-08-07T05:40:20.503Z,2.1
2022-08-07T05:42:00.878Z,2.1
2022-08-07T05:42:37.204Z,1.6
2022-08-07T05:43:50.306Z,1.6
2022-08-07T05:45:04.556Z,1.6
2022-08-07T05:46:02.851Z,2.9
2022-08-07T05:47:17.942Z,2.9
2022-08-07T05:48:19.588Z,2.9
2022-08-07T05:49:37.133Z,0.8
2022-08-07T05:50:39.454Z,0.8
2022-08-07T05:51:46.308Z,0.8
2022-08-07T05:52:53.466Z,0.9
2022-08-07T05:54:08.787Z,0.9
2022-08-07T05:55:11.312Z,0.9
2022-08-07T05:56:18.756Z,1.1
2022-08-07T05:57:29.841Z,1.1
2022-08-07T05:58:36.457Z,1.1
2022-08-07T05:59:55.562Z,1.8
2022-08-07T06:00:52.416Z,1.8
2022-08-07T06:02:00.825Z,1.8
2022-08-07T06:03:09.352Z,1.4
2022-08-07T06:04:17.718Z,1.4
2022-08-07T06:05:28.252Z,1.4
2022-08-07T06:06:34.641Z,1.5
2022-08-07T06:08:05.563Z,1.5
2022-08-07T06:08:51.623Z,1.5
2022-08-07T06:10:04.876Z,1
2022-08-07T06:11:08.302Z,1
2022-08-07T06:12:16.680Z,1
2022-08-07T06:14:11.145Z,0.8
2022-08-07T06:14:33.826Z,0.8
2022-08-07T06:15:42.807Z,0.8
2022-08-07T06:16:55.690Z,1.8
2022-08-07T06:17:59.078Z,1.8
2022-08-07T06:19:07.433Z,1.8
2022-08-07T06:20:25.759Z,1.2
2022-08-07T06:22:12.450Z,1.2
2022-08-07T06:22:39.122Z,1.2
2022-08-07T06:24:38.846Z,0.9
2022-08-07T06:24:57.634Z,0.9
2022-08-07T06:26:03.362Z,0.9
2022-08-07T06:27:11.940Z,2.1
2022-08-07T06:28:27.067Z,2.1
2022-08-07T06:29:32.845Z,2.1
2022-08-07T06:30:45.682Z,1.7
2022-08-07T06:31:50.701Z,1.7
2022-08-07T06:32:58.558Z,1.7
2022-08-07T06:34:07.153Z,1.4
2022-08-07T06:35:17.923Z,1.4
2022-08-07T06:36:27.447Z,1.4
2022-08-07T06:37:43.360Z,1.9
2022-08-07T06:38:51.514Z,1.9
2022-08-07T06:40:14.202Z,1.9
2022-08-07T06:40:57.891Z,1.5
2022-08-07T06:42:06.306Z,1.5
2022-08-07T06:43:21.112Z,1.5
2022-08-07T06:44:24.182Z,1.8
2022-08-07T06:45:31.695Z,1.8
2022-08-07T06:46:41.636Z,1.8
2022-08-07T06:47:56.942Z,2.2
2022-08-07T06:48:58.638Z,2.2
2022-08-07T06:50:07.006Z,2.2
2022-08-07T06:51:15.581Z,1.2
2022-08-07T06:52:31.214Z,1.2
2022-08-07T06:54:12.499Z,1.2
2022-08-07T06:55:30.691Z,1.9
2022-08-07T06:55:54.072Z,1.9
2022-08-07T06:56:57.610Z,1.9
2022-08-07T06:58:06.176Z,1.3
2022-08-07T07:00:10.625Z,1.3
2022-08-07T07:00:22.898Z,1.3
2022-08-07T07:01:33.061Z,1.9
2022-08-07T07:02:49.372Z,1.9
2022-08-07T07:03:56.394Z,1.9
2022-08-07T07:04:56.797Z,1
2022-08-07T07:06:06.357Z,1
2022-08-07T07:07:19.511Z,1
2022-08-07T07:08:25.550Z,2
2022-08-07T07:09:31.045Z,2
2022-08-07T07:10:38.871Z,2
2022-08-07T07:12:07.329Z,0.9
2022-08-07T07:12:55.857Z,0.9
2022-08-07T07:14:08.291Z,0.9
2022-08-07T07:15:24.261Z,1.4
2022-08-07T07:16:22.683Z,1.4
2022-08-07T07:17:38.714Z,1.4
2022-08-07T07:18:47.585Z,1
2022-08-07T07:19:56.681Z,1
2022-08-07T07:20:56.383Z,1
2022-08-07T07:22:12.398Z,2.6
2022-08-07T07:24:06.705Z,2.6
2022-08-07T07:24:21.633Z,2.6
2022-08-07T07:26:31.986Z,1.3
2022-08-07T07:26:38.597Z,1.3
2022-08-07T07:27:55.431Z,1.3
2022-08-07T07:29:28.494Z,1.2
2022-08-07T07:30:09.509Z,1.2
2022-08-07T07:31:12.304Z,1.2
2022-08-07T07:32:20.866Z,1
2022-08-07T07:33:29.227Z,1
2022-08-07T07:34:37.589Z,1
2022-08-07T07:35:54.835Z,1.9
2022-08-07T07:37:14.929Z,1.9
2022-08-07T07:38:15.597Z,1.9
2022-08-07T07:39:25.565Z,1
2022-08-07T07:40:32.561Z,1
2022-08-07T07:41:50.615Z,1
2022-08-07T07:42:51.131Z,0.6
2022-08-07T07:44:15.039Z,0.6
2022-08-07T07:45:06.284Z,0.6
2022-08-07T07:46:36.363Z,1.5
2022-08-07T07:47:23.668Z,1.5
2022-08-07T07:48:35.498Z,1.5
2022-08-07T07:50:32.017Z,1.4
2022-08-07T07:50:48.635Z,1.4
2022-08-07T07:51:57.352Z,1.4
2022-08-07T07:53:05.582Z,2
2022-08-07T07:54:13.938Z,2
2022-08-07T07:55:23.012Z,2
2022-08-07T07:56:31.055Z,1
2022-08-07T07:57:44.254Z,1
2022-08-07T07:58:47.614Z,1
2022-08-07T07:59:56.216Z,1.1
2022-08-07T08:02:01.045Z,1.1
2022-08-07T08:02:22.817Z,1.1
2022-08-07T08:04:06.895Z,1.3
2022-08-07T08:04:30.096Z,1.3
2022-08-07T08:05:43.127Z,1.3
2022-08-07T08:06:51.053Z,1.1
2022-08-07T08:07:59.766Z,1.1
2022-08-07T08:09:03.728Z,1.1
2022-08-07T08:10:14.724Z,1.6
2022-08-07T08:11:47.440Z,1.6
2022-08-07T08:12:51.760Z,1.6
2022-08-07T08:13:52.727Z,1.7
2022-08-07T08:14:45.975Z,1.7
2022-08-07T08:15:58.214Z,1.7
2022-08-07T08:17:14.097Z,1.3
2022-08-07T08:18:17.124Z,1.3
2022-08-07T08:20:16.893Z,1.3
2022-08-07T08:20:31.732Z,1.3
2022-08-07T08:21:55.248Z,1.3
2022-08-07T08:22:54.240Z,1.3
2022-08-07T08:23:53.550Z,1.2
2022-08-07T08:25:04.936Z,1.2
2022-08-07T08:26:10.306Z,1.2
2022-08-07T08:27:18.862Z,1.1
2022-08-07T08:28:37.498Z,1.1
2022-08-07T08:29:35.794Z,1.1
2022-08-07T08:30:50.902Z,2.3
2022-08-07T08:31:59.512Z,2.3
2022-08-07T08:33:01.704Z,2.3
2022-08-07T08:34:09.732Z,2.2
2022-08-07T08:35:18.098Z,2.2
2022-08-07T08:36:29.533Z,2.2
2022-08-07T08:38:00.195Z,2.1
2022-08-07T08:38:43.398Z,2.1
2022-08-07T08:39:54.729Z,2.1
2022-08-07T08:41:00.355Z,1.3
2022-08-07T08:42:09.223Z,1.3
2022-08-07T08:43:17.075Z,1.3
2022-08-07T08:44:29.122Z,5.9
2022-08-07T08:45:41.799Z,5.9
2022-08-07T08:46:44.762Z,5.9
2022-08-07T08:47:52.377Z,2.3
2022-08-07T08:48:59.397Z,2.3
2022-08-07T08:50:07.759Z,2.3
2022-08-07T08:51:26.362Z,1.2
2022-08-07T08:52:24.733Z,1.2
2022-08-07T08:53:33.100Z,1.2
2022-08-07T08:54:41.685Z,1.4
2022-08-07T08:55:54.162Z,1.4
2022-08-07T08:56:58.457Z,1.4
2022-08-07T08:58:07.029Z,1.1
2022-08-07T08:59:16.346Z,1.1
2022-08-07T09:00:24.492Z,1.1
2022-08-07T09:01:39.715Z,1.4
2022-08-07T09:02:41.844Z,1.4
2022-08-07T09:03:49.626Z,1.4
2022-08-07T09:04:57.709Z,1.1
2022-08-07T09:06:06.120Z,1.1
2022-08-07T09:07:14.459Z,1.1
2022-08-07T09:08:24.177Z,1.7
2022-08-07T09:09:33.352Z,1.7
2022-08-07T09:10:44.217Z,1.7
2022-08-07T09:11:50.706Z,2.2
2022-08-07T09:12:56.795Z,2.2
2022-08-07T09:14:05.159Z,2.2
2022-08-07T09:16:20.850Z,2.1
2022-08-07T09:16:26.831Z,2.1
2022-08-07T09:17:33.924Z,2.1
2022-08-07T09:18:39.088Z,0.7
2022-08-07T09:19:52.387Z,0.7
2022-08-07T09:20:58.228Z,0.7
2022-08-07T09:22:10.234Z,1.8
2022-08-07T09:24:30.133Z,1.8
2022-08-07T09:24:34.300Z,1.8
2022-08-07T09:25:29.761Z,1.8
2022-08-07T09:26:38.132Z,1.8
2022-08-07T09:27:54.869Z,1.8
2022-08-07T09:29:24.621Z,0.4
2022-08-07T09:30:08.187Z,0.4
2022-08-07T09:31:11.829Z,0.4
2022-08-07T09:32:20.976Z,1
2022-08-07T09:33:41.366Z,1
2022-08-07T09:34:37.125Z,1
2022-08-07T09:36:01.704Z,1.8
2022-08-07T09:36:54.061Z,1.8
2022-08-07T09:38:02.437Z,1.8
2022-08-07T09:39:11.707Z,0.8
2022-08-07T09:40:19.419Z,0.8
2022-08-07T09:41:27.864Z,0.8
2022-08-07T09:42:36.336Z,1.6
2022-08-07T09:44:06.308Z,1.6
2022-08-07T09:47:26.425Z,1.4
2022-08-07T09:47:26.447Z,1.6
2022-08-07T09:47:26.664Z,1.4
2022-08-07T09:48:18.939Z,1.4
2022-08-07T09:49:59.997Z,3.9
2022-08-07T09:50:35.409Z,3.9
2022-08-07T09:52:11.199Z,3.9
2022-08-07T09:52:52.524Z,1.2
2022-08-07T09:54:02.738Z,1.2
2022-08-07T09:55:16.859Z,1.2
2022-08-07T09:56:19.843Z,0.7
2022-08-07T09:57:27.267Z,0.7
2022-08-07T09:58:34.505Z,0.7
2022-08-07T09:59:46.626Z,1.4
2022-08-07T10:00:51.484Z,1.4
2022-08-07T10:01:59.868Z,1.4
2022-08-07T10:03:13.383Z,1.2
2022-08-07T10:04:16.864Z,1.2
2022-08-07T10:05:29.833Z,1.2
2022-08-07T10:06:35.624Z,3
2022-08-07T10:07:49.528Z,3
2022-08-07T10:08:51.295Z,3
2022-08-07T10:10:00.950Z,1.7
2022-08-07T10:11:17.331Z,1.7
2022-08-07T10:12:21.665Z,1.7
2022-08-07T10:13:29.970Z,1.5
2022-08-07T10:14:32.799Z,1.5
2022-08-07T10:15:44.241Z,1.5
2022-08-07T10:16:49.946Z,1.3
2022-08-07T10:18:00.510Z,1.3
2022-08-07T10:19:11.184Z,1.3
2022-08-07T10:20:15.282Z,1.8
2022-08-07T10:21:51.083Z,1.8
2022-08-07T10:22:33.470Z,1.8
2022-08-07T10:24:04.473Z,1.7
2022-08-07T10:24:49.003Z,1.7
2022-08-07T10:25:57.446Z,1.7
2022-08-07T10:27:06.777Z,1.2
2022-08-07T10:28:14.439Z,1.2
2022-08-07T10:29:22.801Z,1.2
2022-08-07T10:30:31.394Z,0.6
2022-08-07T10:31:39.788Z,0.6
2022-08-07T10:32:53.438Z,0.6
2022-08-07T10:34:05.500Z,1.1
2022-08-07T10:35:09.020Z,1.1
2022-08-07T10:36:13.647Z,1.1
2022-08-07T10:37:26.621Z,1
2022-08-07T10:38:36.384Z,1
2022-08-07T10:39:41.779Z,1
2022-08-07T10:40:47.730Z,1.3
2022-08-07T10:42:00.295Z,1.3
2022-08-07T10:43:04.466Z,1.3
2022-08-07T10:44:13.028Z,1.1
2022-08-07T10:45:44.292Z,1.1
2022-08-07T10:46:29.799Z,1.1
2022-08-07T10:47:50.737Z,1.7
2022-08-07T10:48:46.800Z,1.7
2022-08-07T10:49:55.187Z,1.7
2022-08-07T10:51:03.947Z,1.5
2022-08-07T10:52:13.056Z,1.5
2022-08-07T10:53:21.345Z,1.5
2022-08-07T10:54:29.063Z,1.1
2022-08-07T10:55:38.804Z,1.1
2022-08-07T10:56:51.077Z,1.1
2022-08-07T10:58:10.429Z,2.8
2022-08-07T10:59:21.390Z,2.8
2022-08-07T11:00:36.302Z,2.8
2022-08-07T11:01:51.295Z,0.7
2022-08-07T11:02:48.940Z,0.7
2022-08-07T11:04:01.478Z,0.7
2022-08-07T11:05:05.429Z,1.1
2022-08-07T11:06:10.950Z,1.1
2022-08-07T11:07:25.027Z,1.1
2022-08-07T11:08:29.200Z,1.1
2022-08-07T11:10:08.170Z,1.1
2022-08-07T11:10:47.715Z,1.1
2022-08-07T11:11:53.453Z,0.4
2022-08-07T11:13:02.537Z,0.4
2022-08-07T11:14:43.223Z,0.4
2022-08-07T11:15:18.756Z,1.9
2022-08-07T11:16:29.862Z,1.9
2022-08-07T11:17:43.020Z,1.9
2022-08-07T11:18:44.055Z,1.3
2022-08-07T11:19:52.425Z,1.3
2022-08-07T11:21:00.799Z,1.3
2022-08-07T11:22:11.257Z,1
2022-08-07T11:23:20.639Z,1
2022-08-07T11:24:26.259Z,1
2022-08-07T11:25:36.041Z,0.5
2022-08-07T11:26:43.380Z,0.5
2022-08-07T11:28:02.186Z,0.5
2022-08-07T11:29:00.147Z,2.4
2022-08-07T11:30:10.281Z,2.4
2022-08-07T11:31:16.864Z,2.4
2022-08-07T11:32:26.396Z,1.2
2022-08-07T11:33:54.568Z,1.2
2022-08-07T11:34:42.463Z,1.2
2022-08-07T11:35:59.292Z,1.6
2022-08-07T11:37:00.211Z,1.6
2022-08-07T11:38:10.038Z,1.6
2022-08-07T11:39:19.640Z,0.8
2022-08-07T11:40:24.480Z,0.8
2022-08-07T11:42:00.494Z,0.8
2022-08-07T11:42:41.379Z,1.9
2022-08-07T11:43:54.864Z,1.9
2022-08-07T11:44:58.225Z,1.9
2022-08-07T11:46:06.680Z,1.5
2022-08-07T11:47:15.060Z,1.5
2022-08-07T11:48:29.942Z,1.5
2022-08-07T11:49:50.907Z,2.1
2022-08-07T11:50:44.412Z,2.1
2022-08-07T11:51:48.737Z,2.1
2022-08-07T11:52:57.293Z,0.5
2022-08-07T11:54:09.822Z,0.5
2022-08-07T11:55:19.164Z,0.5
2022-08-07T11:56:25.357Z,2.5
2022-08-07T11:57:58.306Z,2.5
2022-08-07T11:58:43.421Z,2.5
2022-08-07T12:00:08.455Z,0.8
2022-08-07T12:01:04.253Z,0.8
2022-08-07T12:02:10.264Z,0.8
2022-08-07T12:03:42.505Z,0.8
2022-08-07T12:04:25.697Z,0.8
2022-08-07T12:05:41.580Z,0.8
2022-08-07T12:06:50.808Z,1.5
2022-08-07T12:07:53.356Z,1.5
2022-08-07T12:08:59.415Z,1.5
2022-08-07T12:10:08.087Z,1
2022-08-07T12:11:20.160Z,1
2022-08-07T12:12:24.765Z,1
2022-08-07T12:13:35.242Z,1.2
2022-08-07T12:14:41.715Z,1.2
2022-08-07T12:16:05.534Z,1.2
2022-08-07T12:16:58.661Z,0.5
2022-08-07T12:18:08.076Z,0.5
2022-08-07T12:19:21.541Z,0.5
2022-08-07T12:20:29.986Z,0.8
2022-08-07T12:21:55.351Z,0.8
2022-08-07T12:22:47.116Z,0.8
2022-08-07T12:24:06.583Z,1
2022-08-07T12:25:02.158Z,1
2022-08-07T12:26:22.592Z,1
2022-08-07T12:27:17.094Z,0.9
2022-08-07T12:28:30.921Z,0.9
2022-08-07T12:29:37.455Z,0.9
2022-08-07T12:30:46.625Z,1.8
2022-08-07T12:31:53.424Z,1.8
2022-08-07T12:32:59.185Z,1.8
2022-08-07T12:34:11.118Z,1
2022-08-07T12:35:16.132Z,1
2022-08-07T12:36:32.694Z,1
2022-08-07T12:38:08.813Z,1.4
2022-08-07T12:38:43.196Z,1.4
2022-08-07T12:39:51.157Z,1.4
2022-08-07T12:40:58.456Z,1
2022-08-07T12:42:06.855Z,1
2022-08-07T12:43:50.815Z,1
2022-08-07T12:44:23.769Z,0.9
2022-08-07T12:45:32.174Z,0.9
2022-08-07T12:46:40.524Z,0.9
2022-08-07T12:47:49.110Z,2.9
2022-08-07T12:48:57.520Z,2.9
2022-08-07T12:50:33.654Z,2.9
2022-08-07T12:51:17.505Z,0.9
2022-08-07T12:52:22.799Z,0.9
2022-08-07T12:54:02.546Z,0.9
2022-08-07T12:54:39.756Z,1.5
2022-08-07T12:56:02.276Z,1.5
2022-08-07T12:56:56.689Z,1.5
2022-08-07T12:58:05.082Z,1.4
2022-08-07T12:59:20.549Z,1.4
2022-08-07T13:00:31.168Z,1.4
2022-08-07T13:01:32.013Z,0.9
2022-08-07T13:02:38.755Z,0.9
2022-08-07T13:03:53.680Z,0.9
2022-08-07T13:05:02.030Z,1.5
2022-08-07T13:06:17.145Z,1.5
2022-08-07T13:07:18.055Z,1.5
2022-08-07T13:08:21.450Z,2
2022-08-07T13:10:17.812Z,2
2022-08-07T13:10:42.366Z,2
2022-08-07T13:12:01.774Z,0.6
2022-08-07T13:12:54.681Z,0.6
2022-08-07T13:14:03.089Z,0.6
2022-08-07T13:15:11.681Z,1.5
2022-08-07T13:16:20.070Z,1.5
2022-08-07T13:17:40.137Z,1.5
2022-08-07T13:18:37.024Z,2.9
2022-08-07T13:19:46.433Z,2.9
2022-08-07T13:20:53.804Z,2.9
2022-08-07T13:22:12.571Z,1
2022-08-07T13:24:00.414Z,1
2022-08-07T13:24:19.188Z,1
2022-08-07T13:25:29.283Z,1.3
2022-08-07T13:26:36.472Z,1.3
2022-08-07T13:28:05.972Z,1.3
2022-08-07T13:28:56.603Z,1.5
2022-08-07T13:30:03.366Z,1.5
2022-08-07T13:31:12.894Z,1.5
2022-08-07T13:32:31.473Z,1
2022-08-07T13:34:14.596Z,1
2022-08-07T13:34:36.042Z,1
2022-08-07T13:35:59.422Z,1.7
2022-08-07T13:36:52.326Z,1.7
2022-08-07T13:38:01.000Z,1.7
2022-08-07T13:39:11.276Z,1.2
2022-08-07T13:40:34.442Z,1.2
2022-08-07T13:41:27.958Z,1.2
2022-08-07T13:42:38.928Z,1.5
2022-08-07T13:43:43.004Z,1.5
2022-08-07T13:44:55.539Z,1.5
2022-08-07T13:46:07.628Z,0.4
2022-08-07T13:47:09.298Z,0.4
2022-08-07T13:48:20.794Z,0.4
2022-08-07T13:50:32.123Z,1.7
2022-08-07T13:50:43.983Z,1.7
2022-08-07T13:52:04.594Z,1.7
2022-08-07T13:52:50.903Z,0.5
2022-08-07T13:54:01.912Z,0.5
2022-08-07T13:55:07.668Z,0.5
2022-08-07T13:56:16.246Z,1.9
2022-08-07T13:57:24.742Z,1.9
2022-08-07T13:58:33.024Z,1.9
2022-08-07T13:59:41.724Z,0.7
2022-08-07T14:00:50.498Z,0.7
2022-08-07T14:02:04.276Z,0.7
2022-08-07T14:03:07.143Z,1.2
2022-08-07T14:04:15.608Z,1.2
2022-08-07T14:05:44.200Z,1.2
2022-08-07T14:06:55.801Z,1
2022-08-07T14:08:09.317Z,1
2022-08-07T14:10:03.226Z,1
2022-08-07T14:10:28.121Z,0.9
2022-08-07T14:11:53.075Z,0.9
2022-08-07T14:12:49.380Z,0.9
2022-08-07T14:14:03.685Z,0.7
2022-08-07T14:15:14.462Z,0.7
2022-08-07T14:16:27.172Z,0.7
2022-08-07T14:17:32.193Z,0.7
2022-08-07T14:18:39.897Z,0.7
2022-08-07T14:20:41.497Z,0.7
2022-08-07T14:20:56.861Z,0.6
2022-08-07T14:22:10.654Z,0.6
2022-08-07T14:23:18.092Z,0.6
2022-08-07T14:24:27.193Z,0.6
2022-08-07T14:25:39.220Z,0.6
2022-08-07T14:26:50.100Z,0.6
2022-08-07T14:28:10.196Z,2.5
2022-08-07T14:29:05.850Z,2.5
2022-08-07T15:03:19.592Z,0
2022-08-07T15:04:25.173Z,0
2022-08-07T15:05:33.241Z,0
2022-08-07T15:06:47.713Z,1.4
2022-08-07T15:07:51.459Z,1.4
2022-08-07T15:08:58.673Z,1.4
2022-08-07T15:10:11.188Z,0.5
2022-08-07T15:11:15.668Z,0.5
2022-08-07T15:12:25.697Z,0.5
2022-08-07T15:14:43.047Z,1.4
2022-08-07T15:15:52.313Z,1.4
2022-08-07T15:17:00.497Z,2.5
2022-08-07T15:18:14.209Z,2.5
2022-08-07T15:20:32.252Z,0.7
2022-08-07T15:21:44.682Z,0.7
2022-08-07T15:22:40.109Z,0.7
2022-08-07T15:25:03.404Z,1.3
2022-08-07T15:26:05.543Z,1.3
2022-08-07T15:28:33.196Z,1.5
2022-08-07T15:30:04.183Z,1.5
2022-08-07T15:30:59.770Z,2.2
2022-08-07T15:33:01.728Z,2.2
2022-08-07T15:34:04.864Z,1.5
2022-08-07T15:35:13.266Z,1.5
2022-08-07T15:36:26.230Z,1.5
2022-08-07T15:38:01.320Z,0.5
2022-08-07T15:38:52.042Z,0.5
2022-08-07T15:39:56.772Z,0.5
2022-08-07T15:41:00.225Z,1.1
2022-08-07T15:43:33.459Z,1.1
2022-08-07T15:44:20.898Z,1.3
2022-08-07T15:45:55.343Z,1.3
2022-08-07T15:46:47.325Z,1.3
2022-08-07T15:49:03.935Z,1.5
2022-08-07T15:50:04.637Z,1.5
2022-08-07T15:51:11.882Z,1.3
2022-08-07T15:52:20.403Z,1.3
2022-08-07T15:53:41.890Z,1.3
2022-08-07T15:54:39.360Z,1.2
2022-08-07T15:55:54.082Z,1.2
2022-08-07T15:56:53.678Z,1.2
2022-08-07T15:58:02.264Z,1.6
2022-08-07T15:59:16.187Z,1.6
2022-08-07T16:00:22.713Z,1.6
2022-08-07T16:01:38.284Z,3.3
2022-08-07T16:02:35.946Z,3.3
2022-08-07T16:03:46.805Z,3.3
2022-08-07T16:04:52.887Z,1.1
2022-08-07T16:06:01.258Z,1.1
2022-08-07T16:08:29.325Z,1.1
2022-08-07T16:08:29.600Z,2.2
2022-08-07T16:09:34.935Z,2.2
2022-08-07T16:10:34.973Z,2.2
2022-08-07T16:11:43.544Z,0.5
2022-08-07T16:13:00.936Z,0.5
2022-08-07T16:14:03.040Z,0.5
2022-08-07T16:15:08.876Z,1.4
2022-08-07T16:16:43.458Z,1.4
2022-08-07T16:18:00.653Z,1.4
2022-08-07T16:18:43.760Z,1.9
2022-08-07T16:19:58.587Z,1.9
2022-08-07T16:20:55.390Z,1.9
2022-08-07T16:22:03.036Z,0.9
2022-08-07T16:23:09.781Z,0.9
2022-08-07T16:24:34.008Z,0.9
2022-08-07T16:25:52.895Z,2.6
2022-08-07T16:26:33.274Z,2.6
2022-08-07T16:27:41.712Z,2.6
2022-08-07T16:29:18.994Z,1.8
2022-08-07T16:30:09.493Z,1.8
2022-08-07T16:31:09.897Z,1.8
2022-08-07T16:32:25.511Z,1.5